sensor_id;sensor_type;location;lat;lon;timestamp;pressure;altitude;pressure_sealevel;temperature;humidity
84855;BME280;75112;42.668;23.356;2024-01-16T00:01:43;93758.91;;;2.83;66.68
84855;BME280;75112;42.668;23.356;2024-01-16T00:04:10;93754.97;;;2.73;65.22
84855;BME280;75112;42.668;23.356;2024-01-16T00:06:39;93775.41;;;2.73;65.22
84855;BME280;75112;42.668;23.356;2024-01-16T00:09:05;93783.66;;;2.75;64.49
84855;BME280;75112;42.668;23.356;2024-01-16T00:11:31;93791.72;;;2.79;65.80
84855;BME280;75112;42.668;23.356;2024-01-16T00:13:56;93778.91;;;2.59;66.07
84855;BME280;75112;42.668;23.356;2024-01-16T00:16:22;93775.38;;;2.53;65.66
84855;BME280;75112;42.668;23.356;2024-01-16T00:18:47;93781.88;;;2.69;65.22
84855;BME280;75112;42.668;23.356;2024-01-16T00:21:12;93771.63;;;2.56;65.63
84855;BME280;75112;42.668;23.356;2024-01-16T00:23:38;93770.13;;;2.88;65.88
84855;BME280;75112;42.668;23.356;2024-01-16T00:26:03;93775.06;;;2.96;64.27
84855;BME280;75112;42.668;23.356;2024-01-16T00:28:31;93765.78;;;2.75;65.02
84855;BME280;75112;42.668;23.356;2024-01-16T00:30:57;93781.72;;;2.91;65.26
84855;BME280;75112;42.668;23.356;2024-01-16T00:33:23;93794.19;;;3.20;63.97
84855;BME280;75112;42.668;23.356;2024-01-16T00:35:48;93768.75;;;2.86;64.14
84855;BME280;75112;42.668;23.356;2024-01-16T00:38:13;93799.63;;;3.04;63.73
84855;BME280;75112;42.668;23.356;2024-01-16T00:40:39;93795.31;;;2.98;65.13
84855;BME280;75112;42.668;23.356;2024-01-16T00:43:04;93793.34;;;3.07;64.76
84855;BME280;75112;42.668;23.356;2024-01-16T00:45:29;93807.75;;;3.28;64.03
84855;BME280;75112;42.668;23.356;2024-01-16T00:47:55;93816.38;;;3.13;64.85
84855;BME280;75112;42.668;23.356;2024-01-16T00:50:20;93789.06;;;3.20;64.46
84855;BME280;75112;42.668;23.356;2024-01-16T00:52:47;93796.94;;;3.45;63.61
84855;BME280;75112;42.668;23.356;2024-01-16T00:55:12;93801.44;;;3.37;63.81
84855;BME280;75112;42.668;23.356;2024-01-16T00:57:37;93822.88;;;3.22;64.08
84855;BME280;75112;42.668;23.356;2024-01-16T01:00:04;93822.47;;;3.12;65.36
84855;BME280;75112;42.668;23.356;2024-01-16T01:02:30;93821.88;;;3.17;64.67
84855;BME280;75112;42.668;23.356;2024-01-16T01:04:55;93825.44;;;3.22;64.91
84855;BME280;75112;42.668;23.356;2024-01-16T01:07:20;93844.94;;;3.43;64.59
84855;BME280;75112;42.668;23.356;2024-01-16T01:09:46;93848.47;;;3.36;65.66
84855;BME280;75112;42.668;23.356;2024-01-16T01:12:11;93844.72;;;3.32;64.28
84855;BME280;75112;42.668;23.356;2024-01-16T01:14:37;93824.84;;;3.34;65.28
84855;BME280;75112;42.668;23.356;2024-01-16T01:17:02;93822.88;;;3.22;65.84
84855;BME280;75112;42.668;23.356;2024-01-16T01:19:28;93817.75;;;3.22;65.27
84855;BME280;75112;42.668;23.356;2024-01-16T01:21:53;93829.59;;;3.30;65.60
84855;BME280;75112;42.668;23.356;2024-01-16T01:24:18;93828.78;;;3.50;63.70
84855;BME280;75112;42.668;23.356;2024-01-16T01:26:44;93835.09;;;3.54;64.22
84855;BME280;75112;42.668;23.356;2024-01-16T01:29:09;93834.69;;;3.43;65.35
84855;BME280;75112;42.668;23.356;2024-01-16T01:31:35;93822.09;;;3.35;64.33
84855;BME280;75112;42.668;23.356;2024-01-16T01:34:00;93821.34;;;3.48;64.50
84855;BME280;75112;42.668;23.356;2024-01-16T01:36:26;93815.63;;;3.39;64.41
84855;BME280;75112;42.668;23.356;2024-01-16T01:38:51;93822.88;;;3.69;63.91
84855;BME280;75112;42.668;23.356;2024-01-16T01:41:17;93819.56;;;3.55;64.34
84855;BME280;75112;42.668;23.356;2024-01-16T01:43:42;93816.78;;;3.43;65.72
84855;BME280;75112;42.668;23.356;2024-01-16T01:46:17;93827.22;;;3.68;66.21
84855;BME280;75112;42.668;23.356;2024-01-16T01:48:44;93815.41;;;3.47;65.67
84855;BME280;75112;42.668;23.356;2024-01-16T01:51:14;93813.44;;;3.50;65.28
84855;BME280;75112;42.668;23.356;2024-01-16T01:53:42;93818.38;;;3.64;64.94
84855;BME280;75112;42.668;23.356;2024-01-16T01:56:13;93802.44;;;3.36;65.99
84855;BME280;75112;42.668;23.356;2024-01-16T01:58:40;93822.69;;;3.71;65.69
84855;BME280;75112;42.668;23.356;2024-01-16T02:01:08;93814.63;;;3.47;66.16
84855;BME280;75112;42.668;23.356;2024-01-16T02:03:40;93796.34;;;3.37;66.20
84855;BME280;75112;42.668;23.356;2024-01-16T02:06:07;93800.47;;;3.38;66.31
84855;BME280;75112;42.668;23.356;2024-01-16T02:08:32;93805.56;;;3.31;65.94
84855;BME280;75112;42.668;23.356;2024-01-16T02:10:58;93806.19;;;3.40;66.06
84855;BME280;75112;42.668;23.356;2024-01-16T02:13:23;93810.88;;;3.63;66.54
84855;BME280;75112;42.668;23.356;2024-01-16T02:15:50;93834.91;;;3.62;65.79
84855;BME280;75112;42.668;23.356;2024-01-16T02:18:16;93829.97;;;3.47;67.22
84855;BME280;75112;42.668;23.356;2024-01-16T02:20:42;93833.91;;;3.43;67.81
84855;BME280;75112;42.668;23.356;2024-01-16T02:23:10;93844.75;;;3.45;65.66
84855;BME280;75112;42.668;23.356;2024-01-16T02:25:35;93840.19;;;3.47;67.71
84855;BME280;75112;42.668;23.356;2024-01-16T02:28:01;93850.66;;;3.52;67.28
84855;BME280;75112;42.668;23.356;2024-01-16T02:30:28;93816.41;;;3.40;67.83
84855;BME280;75112;42.668;23.356;2024-01-16T02:32:53;93847.31;;;3.65;67.74
84855;BME280;75112;42.668;23.356;2024-01-16T02:35:19;93822.09;;;3.35;68.05
84855;BME280;75112;42.668;23.356;2024-01-16T02:37:46;93833.91;;;3.43;68.57
84855;BME280;75112;42.668;23.356;2024-01-16T02:40:11;93857.94;;;3.62;68.16
84855;BME280;75112;42.668;23.356;2024-01-16T02:42:36;93854.38;;;3.43;68.29
84855;BME280;75112;42.668;23.356;2024-01-16T02:45:04;93855.94;;;3.37;68.70
84855;BME280;75112;42.668;23.356;2024-01-16T02:47:29;93868.94;;;3.56;68.98
84855;BME280;75112;42.668;23.356;2024-01-16T02:49:55;93868.75;;;3.57;68.11
84855;BME280;75112;42.668;23.356;2024-01-16T02:52:20;93884.69;;;3.53;68.83
84855;BME280;75112;42.668;23.356;2024-01-16T02:54:46;93891.56;;;3.45;69.31
84855;BME280;75112;42.668;23.356;2024-01-16T02:57:11;93898.06;;;3.61;68.52
84855;BME280;75112;42.668;23.356;2024-01-16T02:59:37;93913.44;;;3.61;68.38
84855;BME280;75112;42.668;23.356;2024-01-16T03:02:02;93920.31;;;3.54;69.42
84855;BME280;75112;42.668;23.356;2024-01-16T03:04:28;93928.19;;;3.66;68.71
84855;BME280;75112;42.668;23.356;2024-01-16T03:06:53;93937.84;;;3.64;68.06
84855;BME280;75112;42.668;23.356;2024-01-16T03:09:18;93947.69;;;3.74;68.80
84855;BME280;75112;42.668;23.356;2024-01-16T03:11:44;93955.59;;;3.92;69.00
84855;BME280;75112;42.668;23.356;2024-01-16T03:14:09;93959.13;;;3.91;68.15
84855;BME280;75112;42.668;23.356;2024-01-16T03:16:35;93967.38;;;3.80;69.03
84855;BME280;75112;42.668;23.356;2024-01-16T03:19:00;93964.81;;;3.93;67.60
84855;BME280;75112;42.668;23.356;2024-01-16T03:21:26;93978.41;;;3.87;68.52
84855;BME280;75112;42.668;23.356;2024-01-16T03:23:51;93986.88;;;3.81;68.68
84855;BME280;75112;42.668;23.356;2024-01-16T03:26:17;94006.97;;;3.90;69.44
84855;BME280;75112;42.668;23.356;2024-01-16T03:28:42;94017.81;;;3.99;72.61
84855;BME280;75112;42.668;23.356;2024-01-16T03:31:08;94008.56;;;3.91;70.94
84855;BME280;75112;42.668;23.356;2024-01-16T03:33:34;94006.78;;;3.92;71.38
84855;BME280;75112;42.668;23.356;2024-01-16T03:36:00;94013.47;;;3.86;73.40
84855;BME280;75112;42.668;23.356;2024-01-16T03:38:25;94026.09;;;4.01;74.80
84855;BME280;75112;42.668;23.356;2024-01-16T03:40:51;94026.47;;;3.98;74.44
84855;BME280;75112;42.668;23.356;2024-01-16T03:43:17;94033.78;;;4.21;76.04
84855;BME280;75112;42.668;23.356;2024-01-16T03:45:42;94054.47;;;4.33;75.52
84855;BME280;75112;42.668;23.356;2024-01-16T03:48:08;94052.91;;;4.32;76.18
84855;BME280;75112;42.668;23.356;2024-01-16T03:50:34;94055.06;;;4.22;75.89
84855;BME280;75112;42.668;23.356;2024-01-16T03:53:02;94058.41;;;4.15;77.14
84855;BME280;75112;42.668;23.356;2024-01-16T03:55:29;94035.13;;;3.97;75.88
84855;BME280;75112;42.668;23.356;2024-01-16T03:57:55;94048.50;;;3.86;76.85
84855;BME280;75112;42.668;23.356;2024-01-16T04:00:21;94058.00;;;4.05;74.81
84855;BME280;75112;42.668;23.356;2024-01-16T04:02:46;94072.16;;;4.01;75.47
84855;BME280;75112;42.668;23.356;2024-01-16T04:05:12;94102.50;;;4.04;74.76
84855;BME280;75112;42.668;23.356;2024-01-16T04:07:37;94110.16;;;3.98;75.44
84855;BME280;75112;42.668;23.356;2024-01-16T04:10:04;94093.78;;;3.79;74.63
84855;BME280;75112;42.668;23.356;2024-01-16T04:12:31;94104.41;;;3.82;74.52
84855;BME280;75112;42.668;23.356;2024-01-16T04:14:56;94133.97;;;3.91;74.90
84855;BME280;75112;42.668;23.356;2024-01-16T04:17:22;94135.94;;;3.89;75.04
84855;BME280;75112;42.668;23.356;2024-01-16T04:19:48;94139.84;;;3.85;73.95
84855;BME280;75112;42.668;23.356;2024-01-16T04:22:13;94128.75;;;3.65;74.22
84855;BME280;75112;42.668;23.356;2024-01-16T04:24:39;94157.53;;;3.80;73.41
84855;BME280;75112;42.668;23.356;2024-01-16T04:27:04;94159.69;;;3.77;73.52
84855;BME280;75112;42.668;23.356;2024-01-16T04:29:30;94140.53;;;3.66;72.55
84855;BME280;75112;42.668;23.356;2024-01-16T04:31:56;94165.19;;;3.74;72.40
84855;BME280;75112;42.668;23.356;2024-01-16T04:34:21;94171.31;;;3.73;72.17
84855;BME280;75112;42.668;23.356;2024-01-16T04:36:47;94144.06;;;3.58;72.71
84855;BME280;75112;42.668;23.356;2024-01-16T04:39:13;94164.91;;;3.55;73.09
84855;BME280;75112;42.668;23.356;2024-01-16T04:41:38;94168.06;;;3.57;72.13
84855;BME280;75112;42.668;23.356;2024-01-16T04:44:04;94162.34;;;3.55;72.00
84855;BME280;75112;42.668;23.356;2024-01-16T04:46:29;94178.34;;;3.64;71.74
84855;BME280;75112;42.668;23.356;2024-01-16T04:48:55;94189.53;;;3.63;72.41
84855;BME280;75112;42.668;23.356;2024-01-16T04:51:20;94196.16;;;3.51;72.95
84855;BME280;75112;42.668;23.356;2024-01-16T04:53:45;94200.44;;;3.43;71.81
84855;BME280;75112;42.668;23.356;2024-01-16T04:56:11;94197.38;;;3.27;71.51
84855;BME280;75112;42.668;23.356;2024-01-16T04:58:36;94208.78;;;3.24;72.80
84855;BME280;75112;42.668;23.356;2024-01-16T05:01:02;94220.94;;;3.22;72.55
84855;BME280;75112;42.668;23.356;2024-01-16T05:03:27;94229.31;;;3.09;73.16
84855;BME280;75112;42.668;23.356;2024-01-16T05:05:53;94245.16;;;3.05;72.96
84855;BME280;75112;42.668;23.356;2024-01-16T05:08:18;94243.34;;;2.98;73.75
84855;BME280;75112;42.668;23.356;2024-01-16T05:10:44;94259.25;;;2.94;72.24
84855;BME280;75112;42.668;23.356;2024-01-16T05:13:09;94269.41;;;2.87;71.49
84855;BME280;75112;42.668;23.356;2024-01-16T05:15:37;94281.03;;;2.90;71.71
84855;BME280;75112;42.668;23.356;2024-01-16T05:18:02;94260.28;;;2.78;72.33
84855;BME280;75112;42.668;23.356;2024-01-16T05:20:28;94282.06;;;2.95;72.17
84855;BME280;75112;42.668;23.356;2024-01-16T05:22:54;94278.59;;;2.82;72.20
84855;BME280;75112;42.668;23.356;2024-01-16T05:25:20;94302.13;;;2.98;71.95
84855;BME280;75112;42.668;23.356;2024-01-16T05:27:46;94297.75;;;2.92;70.75
84855;BME280;75112;42.668;23.356;2024-01-16T05:30:12;94314.13;;;2.98;71.77
84855;BME280;75112;42.668;23.356;2024-01-16T05:32:37;94306.81;;;2.95;70.72
84855;BME280;75112;42.668;23.356;2024-01-16T05:35:04;94332.91;;;3.05;70.48
84855;BME280;75112;42.668;23.356;2024-01-16T05:37:30;94331.91;;;3.06;71.72
84855;BME280;75112;42.668;23.356;2024-01-16T05:39:55;94333.91;;;3.11;70.00
84855;BME280;75112;42.668;23.356;2024-01-16T05:42:21;94342.75;;;3.08;70.79
84855;BME280;75112;42.668;23.356;2024-01-16T05:44:46;94361.06;;;2.90;70.73
84855;BME280;75112;42.668;23.356;2024-01-16T05:47:12;94359.22;;;2.84;71.29
84855;BME280;75112;42.668;23.356;2024-01-16T05:49:37;94368.16;;;2.95;71.18
84855;BME280;75112;42.668;23.356;2024-01-16T05:52:03;94362.91;;;2.82;70.54
84855;BME280;75112;42.668;23.356;2024-01-16T05:54:28;94374.13;;;2.81;68.90
84855;BME280;75112;42.668;23.356;2024-01-16T05:56:54;94381.44;;;2.84;68.34
84855;BME280;75112;42.668;23.356;2024-01-16T05:59:19;94395.50;;;2.80;68.34
84855;BME280;75112;42.668;23.356;2024-01-16T06:01:45;94406.16;;;2.83;68.21
84855;BME280;75112;42.668;23.356;2024-01-16T06:04:10;94426.09;;;2.88;68.89
84855;BME280;75112;42.668;23.356;2024-01-16T06:06:35;94421.97;;;2.87;68.37
84855;BME280;75112;42.668;23.356;2024-01-16T06:09:01;94432.53;;;2.84;68.66
84855;BME280;75112;42.668;23.356;2024-01-16T06:11:31;94437.53;;;2.92;70.31
84855;BME280;75112;42.668;23.356;2024-01-16T06:13:57;94452.44;;;3.03;69.57
84855;BME280;75112;42.668;23.356;2024-01-16T06:16:23;94447.94;;;3.05;67.13
84855;BME280;75112;42.668;23.356;2024-01-16T06:18:48;94440.38;;;2.82;68.91
84855;BME280;75112;42.668;23.356;2024-01-16T06:21:13;94475.34;;;2.82;69.04
84855;BME280;75112;42.668;23.356;2024-01-16T06:23:40;94477.91;;;2.82;68.76
84855;BME280;75112;42.668;23.356;2024-01-16T06:26:07;94473.66;;;2.89;69.57
84855;BME280;75112;42.668;23.356;2024-01-16T06:28:33;94472.34;;;2.93;67.91
84855;BME280;75112;42.668;23.356;2024-01-16T06:30:58;94484.16;;;3.09;68.49
84855;BME280;75112;42.668;23.356;2024-01-16T06:33:24;94480.81;;;3.08;67.82
84855;BME280;75112;42.668;23.356;2024-01-16T06:35:51;94490.78;;;3.03;67.97
84855;BME280;75112;42.668;23.356;2024-01-16T06:38:16;94499.50;;;3.09;66.60
84855;BME280;75112;42.668;23.356;2024-01-16T06:40:42;94502.13;;;3.00;66.98
84855;BME280;75112;42.668;23.356;2024-01-16T06:43:07;94506.53;;;3.07;66.10
84855;BME280;75112;42.668;23.356;2024-01-16T06:45:32;94486.19;;;2.84;65.65
84855;BME280;75112;42.668;23.356;2024-01-16T06:47:58;94532.44;;;2.89;65.39
84855;BME280;75112;42.668;23.356;2024-01-16T06:50:23;94522.91;;;2.83;66.21
84855;BME280;75112;42.668;23.356;2024-01-16T06:52:49;94516.13;;;2.60;66.42
84855;BME280;75112;42.668;23.356;2024-01-16T06:55:14;94549.00;;;2.78;66.46
84855;BME280;75112;42.668;23.356;2024-01-16T06:57:40;94522.41;;;2.72;67.20
84855;BME280;75112;42.668;23.356;2024-01-16T07:00:06;94531.84;;;2.87;64.15
84855;BME280;75112;42.668;23.356;2024-01-16T07:02:32;94565.28;;;2.77;64.47
84855;BME280;75112;42.668;23.356;2024-01-16T07:04:58;94565.63;;;2.74;65.43
84855;BME280;75112;42.668;23.356;2024-01-16T07:07:23;94576.69;;;2.74;65.49
84855;BME280;75112;42.668;23.356;2024-01-16T07:09:49;94561.94;;;2.76;65.53
84855;BME280;75112;42.668;23.356;2024-01-16T07:12:15;94556.66;;;2.63;66.80
84855;BME280;75112;42.668;23.356;2024-01-16T07:14:41;94581.94;;;2.73;66.94
84855;BME280;75112;42.668;23.356;2024-01-16T07:17:06;94598.25;;;2.72;65.16
84855;BME280;75112;42.668;23.356;2024-01-16T07:19:33;94606.53;;;2.74;66.42
84855;BME280;75112;42.668;23.356;2024-01-16T07:21:58;94605.00;;;2.65;66.76
84855;BME280;75112;42.668;23.356;2024-01-16T07:24:24;94628.31;;;2.85;65.01
84855;BME280;75112;42.668;23.356;2024-01-16T07:26:49;94623.41;;;2.60;65.89
84855;BME280;75112;42.668;23.356;2024-01-16T07:29:15;94641.84;;;2.70;66.58
84855;BME280;75112;42.668;23.356;2024-01-16T07:31:40;94653.00;;;2.78;65.97
84855;BME280;75112;42.668;23.356;2024-01-16T07:34:06;94655.22;;;2.95;66.52
84855;BME280;75112;42.668;23.356;2024-01-16T07:36:32;94653.19;;;2.91;66.52
84855;BME280;75112;42.668;23.356;2024-01-16T07:38:57;94649.66;;;2.92;65.09
84855;BME280;75112;42.668;23.356;2024-01-16T07:41:22;94659.53;;;2.95;65.75
84855;BME280;75112;42.668;23.356;2024-01-16T07:43:48;94641.28;;;2.60;65.02
84855;BME280;75112;42.668;23.356;2024-01-16T07:46:13;94675.41;;;2.67;65.89
84855;BME280;75112;42.668;23.356;2024-01-16T07:48:39;94666.84;;;2.60;66.24
84855;BME280;75112;42.668;23.356;2024-01-16T07:51:04;94667.19;;;2.57;66.31
84855;BME280;75112;42.668;23.356;2024-01-16T07:53:31;94671.84;;;2.53;65.68
84855;BME280;75112;42.668;23.356;2024-01-16T07:55:56;94684.69;;;2.68;66.08
84855;BME280;75112;42.668;23.356;2024-01-16T07:58:22;94685.47;;;2.69;66.44
84855;BME280;75112;42.668;23.356;2024-01-16T08:00:48;94705.13;;;2.68;66.26
84855;BME280;75112;42.668;23.356;2024-01-16T08:03:15;94710.94;;;2.54;65.82
84855;BME280;75112;42.668;23.356;2024-01-16T08:05:40;94713.28;;;2.64;66.73
84855;BME280;75112;42.668;23.356;2024-01-16T08:08:09;94716.06;;;2.77;66.19
84855;BME280;75112;42.668;23.356;2024-01-16T08:10:35;94718.84;;;2.90;65.57
84855;BME280;75112;42.668;23.356;2024-01-16T08:13:00;94724.75;;;2.91;66.26
84855;BME280;75112;42.668;23.356;2024-01-16T08:15:25;94725.41;;;2.93;64.63
84855;BME280;75112;42.668;23.356;2024-01-16T08:17:51;94723.09;;;2.98;63.45
84855;BME280;75112;42.668;23.356;2024-01-16T08:20:16;94719.66;;;2.91;64.99
84855;BME280;75112;42.668;23.356;2024-01-16T08:22:42;94744.19;;;3.00;64.00
84855;BME280;75112;42.668;23.356;2024-01-16T08:25:08;94745.56;;;2.88;63.85
84855;BME280;75112;42.668;23.356;2024-01-16T08:27:33;94758.63;;;2.93;65.97
84855;BME280;75112;42.668;23.356;2024-01-16T08:29:59;94765.47;;;2.92;63.63
84855;BME280;75112;42.668;23.356;2024-01-16T08:32:25;94760.31;;;3.00;63.57
84855;BME280;75112;42.668;23.356;2024-01-16T08:34:50;94771.56;;;2.91;63.88
84855;BME280;75112;42.668;23.356;2024-01-16T08:37:16;94775.59;;;2.86;64.79
84855;BME280;75112;42.668;23.356;2024-01-16T08:39:41;94777.47;;;2.92;64.69
84855;BME280;75112;42.668;23.356;2024-01-16T08:42:08;94776.13;;;2.73;63.12
84855;BME280;75112;42.668;23.356;2024-01-16T08:44:37;94766.13;;;2.63;62.14
84855;BME280;75112;42.668;23.356;2024-01-16T08:47:03;94785.59;;;2.64;64.09
84855;BME280;75112;42.668;23.356;2024-01-16T08:49:29;94792.53;;;2.87;63.78
84855;BME280;75112;42.668;23.356;2024-01-16T08:51:55;94780.13;;;2.75;64.99
84855;BME280;75112;42.668;23.356;2024-01-16T08:54:20;94789.44;;;2.91;63.04
84855;BME280;75112;42.668;23.356;2024-01-16T08:56:48;94796.56;;;3.04;62.83
84855;BME280;75112;42.668;23.356;2024-01-16T08:59:13;94784.69;;;2.88;62.44
84855;BME280;75112;42.668;23.356;2024-01-16T09:01:39;94811.78;;;2.97;62.94
84855;BME280;75112;42.668;23.356;2024-01-16T09:04:08;94821.22;;;2.97;62.95
84855;BME280;75112;42.668;23.356;2024-01-16T09:06:34;94793.47;;;2.86;62.66
84855;BME280;75112;42.668;23.356;2024-01-16T09:08:59;94787.91;;;2.82;63.28
84855;BME280;75112;42.668;23.356;2024-01-16T09:11:25;94822.38;;;3.17;62.28
84855;BME280;75112;42.668;23.356;2024-01-16T09:13:50;94815.75;;;3.00;61.69
84855;BME280;75112;42.668;23.356;2024-01-16T09:16:16;94823.19;;;2.87;62.36
84855;BME280;75112;42.668;23.356;2024-01-16T09:18:42;94812.22;;;2.78;62.64
84855;BME280;75112;42.668;23.356;2024-01-16T09:21:07;94821.59;;;2.86;62.98
84855;BME280;75112;42.668;23.356;2024-01-16T09:23:33;94831.06;;;3.08;63.04
84855;BME280;75112;42.668;23.356;2024-01-16T09:25:58;94805.13;;;2.88;61.72
84855;BME280;75112;42.668;23.356;2024-01-16T09:28:24;94843.69;;;2.79;61.91
84855;BME280;75112;42.668;23.356;2024-01-16T09:30:49;94805.00;;;2.50;63.03
84855;BME280;75112;42.668;23.356;2024-01-16T09:33:15;94845.88;;;2.90;62.39
84855;BME280;75112;42.668;23.356;2024-01-16T09:35:42;94848.69;;;2.95;62.36
84855;BME280;75112;42.668;23.356;2024-01-16T09:38:08;94821.00;;;2.75;61.95
84855;BME280;75112;42.668;23.356;2024-01-16T09:40:34;94826.31;;;2.97;62.04
84855;BME280;75112;42.668;23.356;2024-01-16T09:43:01;94835.44;;;3.22;60.28
84855;BME280;75112;42.668;23.356;2024-01-16T09:45:26;94833.63;;;3.31;61.17
84855;BME280;75112;42.668;23.356;2024-01-16T09:47:55;94839.59;;;3.46;59.75
84855;BME280;75112;42.668;23.356;2024-01-16T09:50:22;94829.31;;;3.32;59.22
84855;BME280;75112;42.668;23.356;2024-01-16T09:52:48;94838.00;;;3.45;60.01
84855;BME280;75112;42.668;23.356;2024-01-16T09:55:15;94838.97;;;3.44;60.18
84855;BME280;75112;42.668;23.356;2024-01-16T09:57:41;94848.97;;;3.54;59.88
84855;BME280;75112;42.668;23.356;2024-01-16T10:00:09;94848.16;;;3.77;58.03
84855;BME280;75112;42.668;23.356;2024-01-16T10:02:40;94842.53;;;3.96;57.16
84855;BME280;75112;42.668;23.356;2024-01-16T10:05:10;94817.81;;;3.88;58.04
84855;BME280;75112;42.668;23.356;2024-01-16T10:07:38;94835.97;;;4.17;57.08
84855;BME280;75112;42.668;23.356;2024-01-16T10:10:05;94835.84;;;4.25;56.08
84855;BME280;75112;42.668;23.356;2024-01-16T10:12:31;94833.75;;;4.13;55.47
84855;BME280;75112;42.668;23.356;2024-01-16T10:14:59;94826.50;;;4.17;55.58
84855;BME280;75112;42.668;23.356;2024-01-16T10:17:42;94824.19;;;4.07;56.52
84855;BME280;75112;42.668;23.356;2024-01-16T10:20:11;94804.78;;;3.98;56.30
84855;BME280;75112;42.668;23.356;2024-01-16T10:22:52;94849.50;;;5.06;58.23
84855;BME280;75112;42.668;23.356;2024-01-16T10:25:19;94843.47;;;5.35;53.01
84855;BME280;75112;42.668;23.356;2024-01-16T10:27:46;94849.41;;;5.36;52.84
84855;BME280;75112;42.668;23.356;2024-01-16T10:30:12;94833.19;;;5.14;52.76
84855;BME280;75112;42.668;23.356;2024-01-16T10:32:41;94842.56;;;4.85;52.73
84855;BME280;75112;42.668;23.356;2024-01-16T10:35:11;94849.63;;;4.83;53.30
84855;BME280;75112;42.668;23.356;2024-01-16T10:37:47;94826.59;;;4.68;53.31
84855;BME280;75112;42.668;23.356;2024-01-16T10:40:19;94836.38;;;4.79;52.16
84855;BME280;75112;42.668;23.356;2024-01-16T10:42:45;94850.94;;;5.30;52.85
84855;BME280;75112;42.668;23.356;2024-01-16T10:45:18;94850.69;;;5.46;52.80
84855;BME280;75112;42.668;23.356;2024-01-16T10:47:48;94859.91;;;6.05;50.16
84855;BME280;75112;42.668;23.356;2024-01-16T10:50:14;94858.31;;;6.32;49.17
84855;BME280;75112;42.668;23.356;2024-01-16T10:52:47;94849.28;;;6.43;48.93
84855;BME280;75112;42.668;23.356;2024-01-16T10:55:21;94855.81;;;6.45;48.51
84855;BME280;75112;42.668;23.356;2024-01-16T10:57:50;94845.94;;;6.49;48.28
84855;BME280;75112;42.668;23.356;2024-01-16T11:00:19;94827.44;;;7.15;47.54
84855;BME280;75112;42.668;23.356;2024-01-16T11:03:06;94837.59;;;7.36;47.22
84855;BME280;75112;42.668;23.356;2024-01-16T11:05:33;94848.19;;;7.00;46.78
84855;BME280;75112;42.668;23.356;2024-01-16T11:07:59;94857.53;;;6.66;47.25
84855;BME280;75112;42.668;23.356;2024-01-16T11:10:29;94863.50;;;6.11;49.03
84855;BME280;75112;42.668;23.356;2024-01-16T11:13:00;94855.81;;;5.89;49.16
84855;BME280;75112;42.668;23.356;2024-01-16T11:15:26;94855.09;;;5.95;49.90
84855;BME280;75112;42.668;23.356;2024-01-16T11:17:56;94850.78;;;6.03;49.27
84855;BME280;75112;42.668;23.356;2024-01-16T11:20:23;94867.63;;;6.05;50.04
84855;BME280;75112;42.668;23.356;2024-01-16T11:22:49;94851.91;;;5.93;49.74
84855;BME280;75112;42.668;23.356;2024-01-16T11:25:17;94845.06;;;5.79;51.14
84855;BME280;75112;42.668;23.356;2024-01-16T11:27:44;94853.88;;;5.91;51.34
84855;BME280;75112;42.668;23.356;2024-01-16T11:30:11;94860.56;;;5.92;50.36
84855;BME280;75112;42.668;23.356;2024-01-16T11:32:41;94864.25;;;6.05;50.19
84855;BME280;75112;42.668;23.356;2024-01-16T11:35:10;94868.19;;;6.01;51.01
84855;BME280;75112;42.668;23.356;2024-01-16T11:37:39;94852.25;;;6.12;48.11
84855;BME280;75112;42.668;23.356;2024-01-16T11:42:47;94867.31;;;5.72;50.21
84855;BME280;75112;42.668;23.356;2024-01-16T11:48:13;94866.28;;;5.66;50.77
84855;BME280;75112;42.668;23.356;2024-01-16T11:50:39;94851.16;;;5.35;52.76
84855;BME280;75112;42.668;23.356;2024-01-16T11:53:04;94863.78;;;5.51;51.64
84855;BME280;75112;42.668;23.356;2024-01-16T12:01:05;94866.84;;;4.89;53.29
84855;BME280;75112;42.668;23.356;2024-01-16T12:03:30;94878.94;;;4.95;53.80
84855;BME280;75112;42.668;23.356;2024-01-16T12:05:59;94873.41;;;4.77;53.80
84855;BME280;75112;42.668;23.356;2024-01-16T12:08:26;94887.63;;;4.79;53.92
84855;BME280;75112;42.668;23.356;2024-01-16T12:10:52;94898.78;;;4.72;53.93
84855;BME280;75112;42.668;23.356;2024-01-16T12:13:18;94899.66;;;4.64;53.49
84855;BME280;75112;42.668;23.356;2024-01-16T12:15:43;94914.00;;;4.73;53.07
84855;BME280;75112;42.668;23.356;2024-01-16T12:18:09;94917.63;;;4.79;52.61
84855;BME280;75112;42.668;23.356;2024-01-16T12:20:37;94905.31;;;4.89;52.90
84855;BME280;75112;42.668;23.356;2024-01-16T12:23:04;94895.41;;;4.86;52.76
84855;BME280;75112;42.668;23.356;2024-01-16T12:25:33;94892.31;;;4.91;53.42
84855;BME280;75112;42.668;23.356;2024-01-16T12:28:03;94884.38;;;4.85;55.44
84855;BME280;75112;42.668;23.356;2024-01-16T12:30:30;94907.59;;;5.14;54.85
84855;BME280;75112;42.668;23.356;2024-01-16T12:33:09;94907.22;;;5.17;53.91
84855;BME280;75112;42.668;23.356;2024-01-16T12:35:40;94920.75;;;5.25;52.50
84855;BME280;75112;42.668;23.356;2024-01-16T12:38:07;94903.88;;;5.01;52.99
84855;BME280;75112;42.668;23.356;2024-01-16T12:40:55;94917.19;;;4.90;53.42
84855;BME280;75112;42.668;23.356;2024-01-16T12:43:21;94908.22;;;4.86;53.84
84855;BME280;75112;42.668;23.356;2024-01-16T12:45:54;94915.69;;;4.96;53.84
84855;BME280;75112;42.668;23.356;2024-01-16T12:48:26;94919.97;;;4.95;54.57
84855;BME280;75112;42.668;23.356;2024-01-16T12:50:51;94934.34;;;4.90;53.39
84855;BME280;75112;42.668;23.356;2024-01-16T12:53:23;94931.31;;;4.86;54.88
84855;BME280;75112;42.668;23.356;2024-01-16T12:55:57;94927.31;;;4.98;53.60
84855;BME280;75112;42.668;23.356;2024-01-16T12:58:25;94925.47;;;4.92;54.64
84855;BME280;75112;42.668;23.356;2024-01-16T13:00:53;94906.44;;;5.01;53.38
84855;BME280;75112;42.668;23.356;2024-01-16T13:03:20;94906.00;;;5.13;52.50
84855;BME280;75112;42.668;23.356;2024-01-16T13:05:54;94914.13;;;5.01;52.08
84855;BME280;75112;42.668;23.356;2024-01-16T13:08:21;94914.41;;;5.06;52.28